Time;durP1;ratioP1;P1;durP2;ratioP2;P2;SDS_P1;SDS_P2;PMS_P1;PMS_P2;Temp;Humidity;BMP_temperature;BMP_pressure;BME280_temperature;BME280_humidity;BME280_pressure;Samples;Min_cycle;Max_cycle;Signal;HPM_P1;HPM_P2
2022/01/24 00:02:16;;;;;;;;;;;19.20;56.60;;;;;;5038705;28;1493;-68
2022/01/24 00:04:42;;;;;;;;;;;19.20;56.60;;;;;;5038067;28;1375;-68
2022/01/24 00:07:07;;;;;;;;;;;19.20;56.60;;;;;;5037057;28;1656;-68
2022/01/24 00:09:33;;;;;;;;;;;19.20;56.60;;;;;;5034502;28;1894;-67
2022/01/24 00:12:05;;;;;;;;;;;19.20;56.60;;;;;;5034980;28;1372;-67
2022/01/24 00:27:52;;;;;;;;;;;19.20;56.80;;;;;;5034572;28;1251;-68
2022/01/24 00:30:18;;;;;;;;;;;19.10;56.70;;;;;;5034798;28;1914;-68
2022/01/24 00:32:43;;;;;;;;;;;19.10;56.70;;;;;;5034900;28;1675;-67
2022/01/24 00:35:09;;;;;;;;;;;19.10;56.80;;;;;;5022427;28;1596;-68
2022/01/24 00:37:34;;;;;;;;;;;19.10;56.80;;;;;;5013815;28;1384;-68
2022/01/24 00:40:00;;;;;;;;;;;19.10;56.80;;;;;;5020902;28;1308;-68
2022/01/24 00:42:33;;;;;;;;;;;19.10;56.80;;;;;;5025792;28;1497;-67
2022/01/24 00:45:12;;;;;;;;;;;19.10;56.90;;;;;;5034660;28;1662;-68
2022/01/24 00:48:27;;;;;;;;;;;19.10;56.90;;;;;;5033529;28;1199;-68
2022/01/24 00:55:58;;;;;;;;;;;19.10;57.00;;;;;;5032706;28;1048;-68
2022/01/24 00:58:23;;;;;;;;;;;19.10;56.90;;;;;;5032043;28;1295;-68
2022/01/24 01:00:49;;;;;;;;;;;19.00;56.90;;;;;;5024222;28;1239;-68
2022/01/24 01:03:14;;;;;;;;;;;19.10;57.00;;;;;;5012528;28;1253;-68
2022/01/24 01:19:20;;;;;;;;;;;19.00;57.00;;;;;;5022068;28;1090;-68
2022/01/24 01:21:46;;;;;;;;;;;19.00;57.00;;;;;;5031947;28;1294;-67
2022/01/24 01:24:12;;;;;;;;;;;19.00;57.00;;;;;;5033011;28;1255;-67
2022/01/24 01:26:47;;;;;;;;;;;19.00;57.10;;;;;;5032466;28;1297;-67
2022/01/24 01:29:27;;;;;;;;;;;19.00;57.10;;;;;;5032281;28;1311;-68
2022/01/24 01:32:08;;;;;;;;;;;19.00;57.10;;;;;;5030324;28;1386;-68
2022/01/24 01:35:10;;;;;;;;;;;19.00;57.10;;;;;;5020821;28;1263;-67
2022/01/24 01:40:41;;;;;;;;;;;19.00;57.10;;;;;;5039346;28;1449;-67
2022/01/24 01:54:22;;;;;;;;;;;18.90;57.10;;;;;;5033157;28;1057;-67
2022/01/24 01:56:48;;;;;;;;;;;18.90;57.20;;;;;;5031877;28;1108;-67
2022/01/24 01:59:13;;;;;;;;;;;18.90;57.20;;;;;;5031618;28;1317;-67
2022/01/24 02:01:39;;;;;;;;;;;18.90;57.20;;;;;;5023473;28;1298;-67
2022/01/24 02:04:05;;;;;;;;;;;18.90;57.20;;;;;;5023706;28;1228;-67
2022/01/24 02:06:31;;;;;;;;;;;18.90;57.20;;;;;;5028423;28;1202;-66
2022/01/24 02:08:59;;;;;;;;;;;18.90;57.20;;;;;;5020066;28;1040;-67
2022/01/24 02:11:24;;;;;;;;;;;18.90;57.20;;;;;;5017014;28;1906;-67
2022/01/24 02:13:50;;;;;;;;;;;18.90;57.20;;;;;;5013076;28;1301;-67
2022/01/24 02:16:44;;;;;;;;;;;18.90;57.20;;;;;;5012832;28;1309;-67
2022/01/24 02:19:11;;;;;;;;;;;18.90;57.20;;;;;;5011875;28;1545;-67
2022/01/24 02:21:48;;;;;;;;;;;18.90;57.30;;;;;;5011714;28;1304;-67
2022/01/24 02:24:15;;;;;;;;;;;18.90;57.30;;;;;;5012988;28;1312;-67
2022/01/24 02:26:41;;;;;;;;;;;18.90;57.30;;;;;;5012810;28;1392;-67
2022/01/24 02:29:14;;;;;;;;;;;18.90;57.30;;;;;;5013791;28;1325;-67
2022/01/24 02:31:43;;;;;;;;;;;18.90;57.30;;;;;;5023703;28;1907;-67
2022/01/24 02:34:20;;;;;;;;;;;18.90;57.30;;;;;;5022526;28;1195;-67
2022/01/24 02:36:45;;;;;;;;;;;18.90;57.30;;;;;;5027075;28;1358;-66
2022/01/24 02:39:43;;;;;;;;;;;18.90;57.30;;;;;;5018848;28;1231;-67
2022/01/24 02:50:16;;;;;;;;;;;18.80;57.30;;;;;;5022074;28;1941;-66
2022/01/24 02:52:42;;;;;;;;;;;18.80;57.30;;;;;;5020128;28;1305;-66
2022/01/24 02:55:07;;;;;;;;;;;18.80;57.40;;;;;;5022481;28;1283;-65
2022/01/24 02:57:32;;;;;;;;;;;18.80;57.40;;;;;;5021806;28;1284;-67
2022/01/24 02:59:58;;;;;;;;;;;18.80;57.40;;;;;;5024670;28;1407;-66
2022/01/24 03:02:23;;;;;;;;;;;18.80;57.40;;;;;;5022349;28;1304;-66
2022/01/24 03:04:49;;;;;;;;;;;18.80;57.40;;;;;;5022081;28;1307;-67
2022/01/24 03:07:14;;;;;;;;;;;18.80;57.40;;;;;;5021181;28;1343;-66
2022/01/24 03:09:41;;;;;;;;;;;18.80;57.40;;;;;;5022326;28;1903;-66
2022/01/24 03:12:11;;;;;;;;;;;18.80;57.40;;;;;;5022579;28;1264;-66
2022/01/24 03:14:37;;;;;;;;;;;18.80;57.50;;;;;;5022208;28;1423;-66
2022/01/24 03:17:03;;;;;;;;;;;18.80;57.40;;;;;;5020665;28;1292;-67
2022/01/24 03:19:28;;;;;;;;;;;18.80;57.40;;;;;;5021897;28;1323;-66
2022/01/24 03:21:54;;;;;;;;;;;18.80;57.50;;;;;;5022575;28;1304;-67
2022/01/24 03:24:19;;;;;;;;;;;18.80;57.50;;;;;;5018976;28;1276;-66
2022/01/24 03:26:45;;;;;;;;;;;18.80;57.50;;;;;;5021652;28;1272;-66
2022/01/24 03:29:11;;;;;;;;;;;18.80;57.50;;;;;;5022649;28;1314;-66
2022/01/24 03:31:36;;;;;;;;;;;18.80;57.50;;;;;;5023487;28;1910;-65
2022/01/24 03:34:02;;;;;;;;;;;18.80;57.50;;;;;;5023055;28;1784;-66
2022/01/24 03:36:27;;;;;;;;;;;18.80;57.50;;;;;;5021580;28;1259;-66
2022/01/24 03:38:52;;;;;;;;;;;18.80;57.50;;;;;;5022110;28;1383;-66
2022/01/24 03:41:18;;;;;;;;;;;18.80;57.50;;;;;;5021829;28;1363;-66
2022/01/24 03:43:43;;;;;;;;;;;18.80;57.60;;;;;;5025887;28;1259;-67
2022/01/24 03:48:47;;;;;;;;;;;18.70;57.50;;;;;;5025980;28;1178;-66
2022/01/24 03:51:12;;;;;;;;;;;18.70;57.50;;;;;;5024252;28;1941;-67
2022/01/24 03:53:38;;;;;;;;;;;18.70;57.50;;;;;;5025404;28;1105;-65
2022/01/24 03:56:03;;;;;;;;;;;18.70;57.50;;;;;;5024762;28;1196;-65
2022/01/24 03:58:29;;;;;;;;;;;18.70;57.60;;;;;;5027298;28;1283;-65
2022/01/24 04:00:57;;;;;;;;;;;18.70;57.60;;;;;;5025592;28;1299;-67
2022/01/24 04:03:23;;;;;;;;;;;18.70;57.60;;;;;;5027010;28;1352;-67
2022/01/24 04:05:48;;;;;;;;;;;18.70;57.60;;;;;;5025418;28;1199;-66
2022/01/24 04:08:14;;;;;;;;;;;18.70;57.60;;;;;;5023990;28;1312;-67
2022/01/24 04:10:45;;;;;;;;;;;18.70;57.60;;;;;;5025312;28;1965;-66
2022/01/24 04:13:28;;;;;;;;;;;18.70;57.60;;;;;;5025677;28;1156;-67
2022/01/24 04:16:10;;;;;;;;;;;18.70;57.60;;;;;;5023194;28;1365;-67
2022/01/24 04:18:45;;;;;;;;;;;18.70;57.60;;;;;;5024118;28;1323;-67
2022/01/24 04:23:49;;;;;;;;;;;18.70;57.70;;;;;;5025162;28;1152;-67
2022/01/24 04:26:14;;;;;;;;;;;18.70;57.60;;;;;;5026341;28;1236;-67
2022/01/24 04:28:40;;;;;;;;;;;18.70;57.70;;;;;;5026448;28;1196;-68
2022/01/24 04:31:05;;;;;;;;;;;18.70;57.70;;;;;;5026213;28;2005;-67
2022/01/24 04:33:31;;;;;;;;;;;18.70;57.70;;;;;;5008130;28;1231;-67
2022/01/24 04:35:56;;;;;;;;;;;18.70;57.70;;;;;;5024952;28;1279;-66
2022/01/24 04:38:22;;;;;;;;;;;18.70;57.70;;;;;;5023912;28;1200;-67
2022/01/24 04:40:48;;;;;;;;;;;18.70;57.70;;;;;;5026804;28;1299;-66
2022/01/24 04:43:50;;;;;;;;;;;18.70;57.70;;;;;;5023776;28;1275;-67
2022/01/24 04:56:34;;;;;;;;;;;18.70;57.70;;;;;;5013296;28;1444;-67
2022/01/24 04:59:00;;;;;;;;;;;18.70;57.80;;;;;;5014002;28;1062;-67
2022/01/24 05:01:25;;;;;;;;;;;18.70;57.80;;;;;;5027783;28;1278;-67
2022/01/24 05:03:51;;;;;;;;;;;18.70;57.80;;;;;;5034196;28;1360;-67
2022/01/24 05:06:16;;;;;;;;;;;18.70;57.80;;;;;;5032942;28;1317;-67
2022/01/24 05:08:42;;;;;;;;;;;18.70;57.70;;;;;;5033797;28;1457;-67
2022/01/24 05:11:11;;;;;;;;;;;18.70;57.60;;;;;;5033188;28;1906;-67
2022/01/24 05:24:18;;;;;;;;;;;19.20;57.40;;;;;;5032975;28;1198;-67
2022/01/24 05:26:43;;;;;;;;;;;19.30;57.00;;;;;;5032304;28;1000;-67
2022/01/24 05:29:08;;;;;;;;;;;19.40;56.70;;;;;;5033088;28;1425;-67
2022/01/24 05:31:34;;;;;;;;;;;19.50;56.40;;;;;;5033237;28;2018;-67
2022/01/24 05:33:59;;;;;;;;;;;19.70;56.10;;;;;;5045684;28;1404;-67
2022/01/24 05:36:25;;;;;;;;;;;19.80;55.80;;;;;;5013842;28;1392;-67
2022/01/24 05:38:50;;;;;;;;;;;19.90;55.50;;;;;;5011765;28;1359;-67
2022/01/24 05:41:17;;;;;;;;;;;20.00;55.20;;;;;;5012890;28;1400;-67
2022/01/24 05:43:42;;;;;;;;;;;20.20;55.00;;;;;;5013790;28;1337;-67
2022/01/24 05:46:08;;;;;;;;;;;20.30;54.70;;;;;;5013779;28;1404;-67
2022/01/24 05:48:33;;;;;;;;;;;20.40;54.40;;;;;;5012587;28;1299;-67
2022/01/24 05:50:58;;;;;;;;;;;20.50;54.20;;;;;;5023465;28;1902;-67
2022/01/24 05:53:24;;;;;;;;;;;20.60;54.00;;;;;;5024131;28;1316;-67
2022/01/24 05:55:49;;;;;;;;;;;20.60;53.80;;;;;;5024823;28;1286;-67
2022/01/24 05:58:15;;;;;;;;;;;20.70;53.70;;;;;;5024977;28;1218;-67
2022/01/24 06:00:40;;;;;;;;;;;20.80;53.50;;;;;;5023986;28;1438;-66
2022/01/24 06:03:06;;;;;;;;;;;20.80;53.30;;;;;;5032879;28;1329;-68
2022/01/24 06:05:31;;;;;;;;;;;20.90;53.20;;;;;;5032440;28;1122;-66
2022/01/24 06:07:56;;;;;;;;;;;20.90;53.10;;;;;;5032496;28;1384;-67
2022/01/24 06:10:22;;;;;;;;;;;21.00;53.00;;;;;;5032408;28;1894;-66
2022/01/24 06:12:47;;;;;;;;;;;21.00;52.90;;;;;;5033130;28;1412;-66
2022/01/24 06:15:13;;;;;;;;;;;21.10;52.80;;;;;;5032606;28;1344;-65
2022/01/24 06:17:38;;;;;;;;;;;21.10;52.70;;;;;;5032405;28;1223;-67
2022/01/24 06:20:04;;;;;;;;;;;21.10;52.60;;;;;;5032456;28;1306;-67
2022/01/24 06:22:30;;;;;;;;;;;21.20;52.60;;;;;;5031668;28;1280;-66
2022/01/24 06:24:55;;;;;;;;;;;21.20;52.50;;;;;;5032996;28;1286;-66
2022/01/24 06:27:20;;;;;;;;;;;21.30;52.50;;;;;;5032213;28;1375;-67
2022/01/24 06:29:46;;;;;;;;;;;21.30;53.00;;;;;;5039850;28;1965;-67
2022/01/24 06:32:11;;;;;;;;;;;21.30;52.30;;;;;;5032042;28;1306;-66
2022/01/24 06:34:37;;;;;;;;;;;21.30;52.30;;;;;;5024741;28;1337;-66
2022/01/24 06:37:03;;;;;;;;;;;21.30;52.20;;;;;;5012716;28;1166;-66
2022/01/24 06:39:28;;;;;;;;;;;21.40;52.20;;;;;;5012569;28;1265;-66
2022/01/24 06:44:51;;;;;;;;;;;21.40;52.10;;;;;;5008028;28;1424;-66
2022/01/24 06:47:17;;;;;;;;;;;21.50;52.70;;;;;;5012460;28;1265;-66
2022/01/24 06:49:42;;;;;;;;;;;21.50;52.10;;;;;;5012241;28;1894;-66
2022/01/24 06:52:07;;;;;;;;;;;21.50;52.10;;;;;;5012694;28;1296;-65
2022/01/24 06:54:33;;;;;;;;;;;21.50;52.20;;;;;;5012872;28;1076;-67
2022/01/24 06:56:59;;;;;;;;;;;21.50;52.20;;;;;;5011433;28;1047;-67
2022/01/24 06:59:24;;;;;;;;;;;21.50;52.20;;;;;;5010580;28;1312;-67
2022/01/24 07:01:50;;;;;;;;;;;21.50;52.30;;;;;;5030033;28;1271;-67
2022/01/24 07:04:15;;;;;;;;;;;21.50;52.30;;;;;;5032486;28;1258;-67
2022/01/24 07:06:41;;;;;;;;;;;21.50;52.40;;;;;;5031064;28;1285;-67
2022/01/24 07:09:06;;;;;;;;;;;21.40;52.40;;;;;;5031654;28;1344;-67
2022/01/24 07:11:32;;;;;;;;;;;21.50;52.50;;;;;;5032328;28;1898;-67
2022/01/24 07:13:57;;;;;;;;;;;21.40;52.40;;;;;;5032313;28;1372;-67
2022/01/24 07:16:25;;;;;;;;;;;21.40;52.40;;;;;;5032321;28;1278;-67
2022/01/24 07:19:02;;;;;;;;;;;21.40;52.40;;;;;;5035655;28;1897;-67
2022/01/24 07:21:28;;;;;;;;;;;21.40;52.40;;;;;;5035781;28;1316;-67
2022/01/24 07:23:53;;;;;;;;;;;21.40;52.40;;;;;;5027913;28;1337;-67
2022/01/24 07:26:18;;;;;;;;;;;21.40;52.40;;;;;;5016543;28;1055;-67
2022/01/24 07:28:44;;;;;;;;;;;21.40;52.50;;;;;;5018768;28;1308;-68
2022/01/24 07:31:10;;;;;;;;;;;21.30;52.50;;;;;;5035424;28;1906;-67
2022/01/24 07:33:35;;;;;;;;;;;21.30;52.50;;;;;;5030694;28;2269;-67
2022/01/24 07:36:01;;;;;;;;;;;21.30;52.60;;;;;;5051197;28;1166;-68
2022/01/24 07:38:26;;;;;;;;;;;21.30;52.60;;;;;;5034787;28;1357;-67
2022/01/24 07:40:54;;;;;;;;;;;21.20;52.60;;;;;;5035397;28;1353;-67
2022/01/24 07:43:19;;;;;;;;;;;21.20;52.70;;;;;;5035773;28;1265;-67
2022/01/24 07:45:45;;;;;;;;;;;21.20;52.80;;;;;;5034687;28;1402;-67
2022/01/24 07:48:11;;;;;;;;;;;21.20;52.80;;;;;;5033711;28;1083;-68
2022/01/24 07:50:37;;;;;;;;;;;21.10;52.90;;;;;;5034158;28;1895;-68
2022/01/24 07:53:03;;;;;;;;;;;21.10;53.00;;;;;;5025815;28;1338;-68
2022/01/24 07:55:28;;;;;;;;;;;21.10;53.00;;;;;;5015619;28;1309;-68
2022/01/24 07:57:54;;;;;;;;;;;21.10;53.10;;;;;;5014924;28;1269;-68
2022/01/24 08:00:19;;;;;;;;;;;21.10;53.10;;;;;;5020635;28;1037;-68
2022/01/24 08:02:44;;;;;;;;;;;21.10;53.80;;;;;;5035545;28;1303;-68
2022/01/24 08:05:10;;;;;;;;;;;21.00;53.20;;;;;;5035726;28;1267;-68
2022/01/24 08:07:36;;;;;;;;;;;21.00;53.20;;;;;;5034888;28;1094;-68
2022/01/24 08:10:01;;;;;;;;;;;21.00;53.30;;;;;;5033696;28;1902;-67
2022/01/24 08:12:27;;;;;;;;;;;21.00;53.30;;;;;;5033818;28;1386;-67
2022/01/24 08:14:52;;;;;;;;;;;20.90;53.40;;;;;;5033982;28;1397;-67
2022/01/24 08:17:18;;;;;;;;;;;20.90;53.40;;;;;;5033514;28;1067;-67
2022/01/24 08:19:44;;;;;;;;;;;20.90;53.40;;;;;;5033967;28;1368;-67
2022/01/24 08:22:09;;;;;;;;;;;20.90;53.50;;;;;;5033593;28;1280;-67
2022/01/24 08:24:35;;;;;;;;;;;20.90;53.50;;;;;;5034188;28;1280;-66
2022/01/24 08:27:00;;;;;;;;;;;20.90;53.50;;;;;;5033289;28;1060;-66
2022/01/24 08:29:26;;;;;;;;;;;20.90;53.60;;;;;;5032647;28;1133;-67
2022/01/24 08:31:51;;;;;;;;;;;20.80;53.60;;;;;;5033884;28;1977;-68
2022/01/24 08:34:17;;;;;;;;;;;20.80;53.60;;;;;;5028267;28;1261;-68
2022/01/24 08:36:42;;;;;;;;;;;20.80;53.60;;;;;;5013884;28;1052;-68
2022/01/24 08:39:08;;;;;;;;;;;20.80;53.70;;;;;;5013389;28;1299;-67
2022/01/24 08:42:01;;;;;;;;;;;20.80;53.70;;;;;;5025641;28;1553;-67
2022/01/24 08:46:48;;;;;;;;;;;20.70;53.80;;;;;;5033913;28;1416;-68
2022/01/24 08:49:14;;;;;;;;;;;20.70;53.80;;;;;;5032503;28;1568;-68
2022/01/24 08:51:39;;;;;;;;;;;20.70;53.80;;;;;;5033350;28;1965;-67
2022/01/24 08:54:05;;;;;;;;;;;20.70;53.90;;;;;;5032393;28;1559;-68
2022/01/24 08:56:30;;;;;;;;;;;20.70;53.90;;;;;;5033634;28;1629;-67
2022/01/24 08:58:55;;;;;;;;;;;20.70;53.90;;;;;;5032920;28;1337;-66
2022/01/24 09:01:21;;;;;;;;;;;20.70;54.00;;;;;;5018331;28;1603;-67
2022/01/24 09:03:46;;;;;;;;;;;20.70;54.00;;;;;;5013577;28;1675;-67
2022/01/24 09:06:13;;;;;;;;;;;20.60;54.00;;;;;;5013465;28;1646;-66
2022/01/24 09:08:39;;;;;;;;;;;20.60;54.00;;;;;;5013243;28;1647;-68
2022/01/24 09:11:04;;;;;;;;;;;20.70;54.10;;;;;;4978565;28;1002067;-67
2022/01/24 09:13:30;;;;;;;;;;;20.70;54.10;;;;;;5014788;28;1326;-68
2022/01/24 09:15:56;;;;;;;;;;;20.60;54.60;;;;;;5014199;28;1393;-68
2022/01/24 09:18:21;;;;;;;;;;;20.70;54.00;;;;;;5021943;28;1399;-66
2022/01/24 09:20:50;;;;;;;;;;;20.70;54.00;;;;;;5030972;28;1648;-67
2022/01/24 09:23:15;;;;;;;;;;;20.70;54.00;;;;;;5014532;28;989;-68
2022/01/24 09:25:41;;;;;;;;;;;20.70;53.90;;;;;;5014224;28;1673;-68
2022/01/24 09:28:06;;;;;;;;;;;20.80;54.00;;;;;;5013344;28;1642;-68
2022/01/24 09:30:31;;;;;;;;;;;20.80;53.90;;;;;;5016930;28;1973;-68
2022/01/24 09:32:57;;;;;;;;;;;20.80;53.80;;;;;;5014190;28;1401;-66
2022/01/24 09:35:22;;;;;;;;;;;20.80;53.80;;;;;;5027195;28;1547;-68
2022/01/24 09:37:48;;;;;;;;;;;20.80;53.70;;;;;;5033353;28;1381;-68
2022/01/24 09:40:15;;;;;;;;;;;20.90;53.70;;;;;;5033456;28;1673;-68
2022/01/24 09:42:41;;;;;;;;;;;20.90;53.70;;;;;;5033692;28;1690;-68
2022/01/24 09:45:07;;;;;;;;;;;20.90;53.60;;;;;;5033753;28;1419;-67
2022/01/24 09:47:32;;;;;;;;;;;20.90;53.60;;;;;;5029918;28;2150;-67
2022/01/24 09:49:58;;;;;;;;;;;20.90;53.60;;;;;;5031519;28;2075;-67
2022/01/24 09:52:23;;;;;;;;;;;20.90;53.60;;;;;;5031668;28;1491;-68
2022/01/24 09:54:49;;;;;;;;;;;20.90;53.60;;;;;;5032335;28;1757;-67
2022/01/24 09:57:14;;;;;;;;;;;20.90;53.60;;;;;;5042800;28;1354;-67
2022/01/24 09:59:39;;;;;;;;;;;20.90;53.60;;;;;;5048977;28;1626;-68
2022/01/24 10:02:05;;;;;;;;;;;20.90;53.60;;;;;;5048572;28;1683;-66
2022/01/24 10:04:31;;;;;;;;;;;20.90;53.60;;;;;;5016862;28;1497;-67
2022/01/24 10:06:56;;;;;;;;;;;20.90;53.60;;;;;;5013473;28;1371;-67
2022/01/24 10:09:32;;;;;;;;;;;20.90;53.60;;;;;;5016203;28;1290;-67
2022/01/24 10:16:24;;;;;;;;;;;20.90;53.60;;;;;;5053703;22;3618;-71
2022/01/24 10:18:02;;;;;;;;;;;20.90;53.70;;;;;;5073182;28;1235;-72
2022/01/24 10:20:28;;;;;;;;;;;20.90;53.70;;;;;;5071822;28;1383;-72
2022/01/24 10:22:59;;;;;;;;;;;20.80;53.70;;;;;;5047738;28;1269;-72
2022/01/24 10:25:25;;;;;;;;;;;20.80;53.70;;;;;;5052892;28;1331;-72
2022/01/24 10:27:50;;;;;;;;;;;20.80;53.80;;;;;;5052761;28;1107;-71
2022/01/24 10:30:16;;;;;;;;;;;20.80;53.80;;;;;;5052660;28;1906;-72
2022/01/24 10:32:52;;;;;;;;;;;20.80;53.80;;;;;;5047692;28;1696;-73
2022/01/24 10:35:20;;;;;;;;;;;20.70;53.90;;;;;;5050934;28;1657;-72
2022/01/24 10:37:49;;;;;;;;;;;20.70;53.90;;;;;;5050134;28;1080;-72
2022/01/24 10:40:45;;;;;;;;;;;20.70;53.90;;;;;;5051016;28;1268;-72
2022/01/24 10:43:14;;;;;;;;;;;20.70;54.00;;;;;;5036088;28;1351;-72
2022/01/24 10:45:44;;;;;;;;;;;20.70;54.00;;;;;;5051942;28;1122;-71
2022/01/24 10:48:09;;;;;;;;;;;20.70;54.10;;;;;;5051022;28;1309;-73
2022/01/24 10:50:35;;;;;;;;;;;20.70;54.00;;;;;;5052401;28;1955;-72
2022/01/24 10:53:08;;;;;;;;;;;20.70;54.10;;;;;;5051844;28;1327;-71
2022/01/24 10:55:34;;;;;;;;;;;20.70;54.00;;;;;;5034958;28;1184;-71
2022/01/24 10:58:09;;;;;;;;;;;20.70;54.00;;;;;;5051049;28;1350;-73
2022/01/24 11:00:36;;;;;;;;;;;20.70;54.00;;;;;;5052243;28;1193;-72
2022/01/24 11:03:02;;;;;;;;;;;20.80;54.00;;;;;;5035220;28;1331;-72
2022/01/24 11:05:35;;;;;;;;;;;20.80;53.90;;;;;;5043978;28;2195;-73
2022/01/24 11:08:01;;;;;;;;;;;20.80;53.90;;;;;;5045269;28;1699;-72
2022/01/24 11:10:30;;;;;;;;;;;20.80;53.80;;;;;;5039970;28;1914;-73
2022/01/24 11:12:55;;;;;;;;;;;20.90;53.80;;;;;;5040104;28;1300;-73
2022/01/24 11:15:21;;;;;;;;;;;20.90;53.70;;;;;;5051467;28;1298;-72
2022/01/24 11:17:47;;;;;;;;;;;20.90;53.70;;;;;;5051896;28;1030;-74
2022/01/24 11:20:16;;;;;;;;;;;20.90;53.60;;;;;;5048638;28;1158;-73
2022/01/24 11:22:44;;;;;;;;;;;20.90;53.60;;;;;;5050968;28;1362;-74
2022/01/24 11:25:10;;;;;;;;;;;20.90;53.60;;;;;;5035337;28;969;-74
2022/01/24 11:27:36;;;;;;;;;;;21.00;53.60;;;;;;5051479;28;1072;-73
2022/01/24 11:30:07;;;;;;;;;;;20.90;53.50;;;;;;5050823;28;1901;-71
2022/01/24 11:32:40;;;;;;;;;;;21.00;53.60;;;;;;5051193;28;1197;-73
2022/01/24 11:35:06;;;;;;;;;;;21.00;53.60;;;;;;5052303;28;1110;-74
2022/01/24 11:37:33;;;;;;;;;;;21.00;53.60;;;;;;5050780;28;1111;-74
2022/01/24 11:39:58;;;;;;;;;;;21.00;53.60;;;;;;5051060;28;1199;-74
2022/01/24 11:42:27;;;;;;;;;;;20.90;53.50;;;;;;5052247;28;1295;-74
2022/01/24 11:44:53;;;;;;;;;;;20.90;53.50;;;;;;5052001;28;1107;-74
2022/01/24 11:47:19;;;;;;;;;;;20.90;53.50;;;;;;5043248;28;1058;-73
2022/01/24 11:49:45;;;;;;;;;;;20.90;53.60;;;;;;5038256;28;1204;-75
2022/01/24 11:52:14;;;;;;;;;;;20.90;53.60;;;;;;5051921;28;1899;-74
2022/01/24 11:54:44;;;;;;;;;;;20.90;53.60;;;;;;5049848;28;1857;-73
2022/01/24 11:57:18;;;;;;;;;;;20.90;53.60;;;;;;5051801;28;1066;-76
2022/01/24 11:59:44;;;;;;;;;;;20.90;53.60;;;;;;5049996;28;1075;-74
2022/01/24 12:02:20;;;;;;;;;;;20.80;53.60;;;;;;5039772;28;1316;-74
2022/01/24 12:04:56;;;;;;;;;;;20.90;53.70;;;;;;5070477;28;1343;-72
2022/01/24 12:07:29;;;;;;;;;;;20.80;53.60;;;;;;5055295;28;1106;-73
2022/01/24 12:09:55;;;;;;;;;;;20.80;53.60;;;;;;5054212;28;1898;-73
2022/01/24 12:12:53;;;;;;;;;;;20.80;53.60;;;;;;5037627;28;1350;-73
2022/01/24 12:15:36;;;;;;;;;;;20.80;53.60;;;;;;5019362;28;1251;-73
2022/01/24 12:18:02;;;;;;;;;;;20.80;53.60;;;;;;5043564;28;1122;-74
2022/01/24 12:20:44;;;;;;;;;;;20.80;53.60;;;;;;5037480;28;1248;-74
2022/01/24 12:23:25;;;;;;;;;;;20.90;54.20;;;;;;5055202;28;2074;-74
2022/01/24 12:25:57;;;;;;;;;;;20.90;53.50;;;;;;5055446;28;1197;-73
2022/01/24 12:28:26;;;;;;;;;;;21.00;53.50;;;;;;5056762;28;1150;-74
2022/01/24 12:30:57;;;;;;;;;;;21.00;53.40;;;;;;5040948;28;1902;-73
2022/01/24 12:33:31;;;;;;;;;;;21.00;53.40;;;;;;5055152;28;1184;-72
2022/01/24 12:35:57;;;;;;;;;;;21.00;53.20;;;;;;5055082;28;1150;-71
2022/01/24 12:38:22;;;;;;;;;;;21.10;53.20;;;;;;5053703;28;1213;-74
2022/01/24 12:40:48;;;;;;;;;;;21.10;53.20;;;;;;5055154;28;1048;-73
2022/01/24 12:43:29;;;;;;;;;;;21.10;53.20;;;;;;5041447;28;1182;-72
2022/01/24 12:48:38;;;;;;;;;;;21.10;53.10;;;;;;5048472;28;1139;-74
2022/01/24 12:51:04;;;;;;;;;;;21.10;53.10;;;;;;5047502;28;1951;-73
2022/01/24 12:53:33;;;;;;;;;;;21.10;53.10;;;;;;5056204;28;1267;-73
2022/01/24 12:56:00;;;;;;;;;;;21.10;53.10;;;;;;5056311;28;1397;-73
2022/01/24 12:58:29;;;;;;;;;;;21.10;53.10;;;;;;5047582;28;1067;-73
2022/01/24 13:00:55;;;;;;;;;;;21.10;53.10;;;;;;5039353;28;1119;-72
2022/01/24 13:03:20;;;;;;;;;;;21.10;53.10;;;;;;5047278;28;1243;-72
2022/01/24 13:05:45;;;;;;;;;;;21.10;53.10;;;;;;5047866;28;1126;-73
2022/01/24 13:08:13;;;;;;;;;;;21.10;53.10;;;;;;5041368;28;1134;-73
2022/01/24 13:10:40;;;;;;;;;;;21.10;53.10;;;;;;5054338;28;1914;-73
2022/01/24 13:13:10;;;;;;;;;;;21.10;53.20;;;;;;5061664;28;1173;-74
2022/01/24 13:21:09;;;;;;;;;;;21.00;53.30;;;;;;5040775;28;992;-72
2022/01/24 13:23:35;;;;;;;;;;;21.00;53.30;;;;;;5052933;28;1173;-73
2022/01/24 13:26:01;;;;;;;;;;;21.00;53.30;;;;;;5053233;28;1108;-73
2022/01/24 13:28:27;;;;;;;;;;;21.00;53.30;;;;;;5039067;28;1324;-73
2022/01/24 13:30:59;;;;;;;;;;;21.00;53.40;;;;;;5053755;28;1965;-76
2022/01/24 13:33:25;;;;;;;;;;;21.00;53.40;;;;;;5030502;28;1272;-74
2022/01/24 13:36:01;;;;;;;;;;;21.00;53.50;;;;;;5046630;28;1393;-73
2022/01/24 13:38:33;;;;;;;;;;;21.00;53.50;;;;;;5048131;28;1242;-72
2022/01/24 13:41:12;;;;;;;;;;;20.90;53.50;;;;;;5044009;28;1283;-74
2022/01/24 13:44:01;;;;;;;;;;;20.90;53.50;;;;;;5060447;28;1252;-76
2022/01/24 13:46:30;;;;;;;;;;;20.90;53.60;;;;;;5044089;28;1424;-75
2022/01/24 13:48:55;;;;;;;;;;;20.90;53.60;;;;;;5045248;28;1187;-73
2022/01/24 13:51:22;;;;;;;;;;;20.90;53.60;;;;;;5044602;28;1955;-72
2022/01/24 13:53:53;;;;;;;;;;;20.80;53.60;;;;;;5041388;28;1390;-74
2022/01/24 13:56:32;;;;;;;;;;;20.80;53.70;;;;;;5054281;28;1214;-74
2022/01/24 13:59:07;;;;;;;;;;;20.80;53.70;;;;;;5052837;28;1271;-73
2022/01/24 14:01:32;;;;;;;;;;;20.80;53.70;;;;;;5052146;28;1311;-70
2022/01/24 14:03:58;;;;;;;;;;;20.80;53.80;;;;;;5053922;28;1123;-76
2022/01/24 14:06:24;;;;;;;;;;;20.80;53.80;;;;;;5053194;28;1326;-74
2022/01/24 14:09:00;;;;;;;;;;;20.80;53.80;;;;;;5054917;28;1138;-75
2022/01/24 14:11:25;;;;;;;;;;;20.70;53.80;;;;;;5052134;28;1906;-73
2022/01/24 14:13:53;;;;;;;;;;;20.80;53.90;;;;;;5063047;28;1481;-73
2022/01/24 14:16:33;;;;;;;;;;;20.70;54.10;;;;;;5049005;28;1373;-71
2022/01/24 14:18:59;;;;;;;;;;;20.70;53.90;;;;;;5043943;28;1164;-72
2022/01/24 14:21:24;;;;;;;;;;;20.70;53.90;;;;;;5044924;28;1294;-70
2022/01/24 14:23:50;;;;;;;;;;;20.70;54.00;;;;;;5044678;28;1283;-70
2022/01/24 14:26:18;;;;;;;;;;;20.70;54.00;;;;;;5046865;28;1223;-74
2022/01/24 14:28:43;;;;;;;;;;;20.70;54.00;;;;;;5052757;28;1085;-75
2022/01/24 14:31:14;;;;;;;;;;;20.70;54.00;;;;;;5068628;28;1890;-74
2022/01/24 14:33:39;;;;;;;;;;;20.70;54.00;;;;;;5053135;28;1348;-75
2022/01/24 14:36:08;;;;;;;;;;;20.70;54.10;;;;;;5053176;28;1083;-72
2022/01/24 14:38:33;;;;;;;;;;;20.60;54.00;;;;;;5052537;28;1489;-76
2022/01/24 14:41:02;;;;;;;;;;;20.60;54.10;;;;;;5052522;28;1488;-77
2022/01/24 14:46:15;;;;;;;;;;;20.60;54.10;;;;;;5054049;28;1486;-78
2022/01/24 14:48:44;;;;;;;;;;;20.60;54.10;;;;;;5051884;28;1070;-75
2022/01/24 14:51:10;;;;;;;;;;;20.60;54.20;;;;;;5051152;28;1954;-74
2022/01/24 14:53:35;;;;;;;;;;;20.60;54.20;;;;;;5051731;28;1354;-73
2022/01/24 14:56:01;;;;;;;;;;;20.60;54.30;;;;;;5051396;28;944;-74
2022/01/24 14:58:26;;;;;;;;;;;20.60;54.30;;;;;;5051392;28;1370;-76
2022/01/24 15:00:52;;;;;;;;;;;20.60;54.30;;;;;;5051382;28;1325;-74
2022/01/24 15:03:17;;;;;;;;;;;20.50;54.30;;;;;;5052876;28;1185;-74
2022/01/24 15:05:43;;;;;;;;;;;20.50;54.30;;;;;;5051375;28;1154;-75
2022/01/24 15:08:08;;;;;;;;;;;20.50;54.40;;;;;;5052432;28;1079;-73
2022/01/24 15:10:35;;;;;;;;;;;20.50;54.40;;;;;;5050186;28;1944;-73
2022/01/24 15:13:04;;;;;;;;;;;20.50;54.40;;;;;;5046866;28;1256;-74
2022/01/24 15:15:32;;;;;;;;;;;20.50;54.40;;;;;;5060613;28;1079;-74
2022/01/24 15:26:00;;;;;;;;;;;20.40;54.60;;;;;;5057981;28;1096;-73
2022/01/24 15:28:26;;;;;;;;;;;20.40;54.70;;;;;;5043921;28;1502;-72
2022/01/24 15:30:51;;;;;;;;;;;20.30;54.70;;;;;;5043083;28;1902;-74
2022/01/24 15:33:17;;;;;;;;;;;20.30;54.70;;;;;;5042841;28;1264;-74
2022/01/24 15:35:42;;;;;;;;;;;20.30;54.80;;;;;;5059237;28;1310;-72
2022/01/24 15:38:07;;;;;;;;;;;20.30;54.90;;;;;;5042185;28;1243;-74
2022/01/24 15:40:33;;;;;;;;;;;20.30;54.90;;;;;;5049235;28;1190;-75
2022/01/24 15:48:02;;;;;;;;;;;20.20;55.00;;;;;;5056095;28;1096;-74
2022/01/24 15:50:28;;;;;;;;;;;20.20;55.10;;;;;;5050561;28;1963;-74
2022/01/24 15:52:53;;;;;;;;;;;20.20;55.10;;;;;;5066542;28;1284;-73
2022/01/24 15:55:23;;;;;;;;;;;20.20;55.20;;;;;;5054968;28;1107;-74
2022/01/24 15:57:48;;;;;;;;;;;20.10;55.10;;;;;;5055845;28;1137;-73
2022/01/24 16:00:18;;;;;;;;;;;20.20;55.20;;;;;;5055781;28;1090;-74
2022/01/24 16:02:44;;;;;;;;;;;20.10;55.20;;;;;;5047670;28;1694;-70
2022/01/24 16:05:10;;;;;;;;;;;20.20;55.20;;;;;;5039810;28;1700;-70
2022/01/24 16:07:38;;;;;;;;;;;20.20;55.20;;;;;;5051400;28;1274;-72
2022/01/24 16:10:04;;;;;;;;;;;20.10;55.10;;;;;;5054296;28;1957;-71
2022/01/24 16:12:29;;;;;;;;;;;20.20;55.20;;;;;;5071408;22;3912;-68
2022/01/24 16:14:55;;;;;;;;;;;20.20;55.20;;;;;;5070134;28;1327;-69
2022/01/24 16:17:20;;;;;;;;;;;20.20;55.20;;;;;;5068996;28;1350;-68
2022/01/24 16:19:52;;;;;;;;;;;20.20;55.10;;;;;;5065497;28;1194;-67
2022/01/24 16:22:31;;;;;;;;;;;20.10;55.10;;;;;;5070807;28;1347;-66
2022/01/24 16:27:41;;;;;;;;;;;20.20;55.10;;;;;;5055727;28;1456;-70
2022/01/24 16:30:07;;;;;;;;;;;20.20;55.10;;;;;;5055429;28;1914;-70
2022/01/24 16:32:35;;;;;;;;;;;20.10;55.10;;;;;;5055439;28;1623;-70